sensor_id;sensor_type;location;lat;lon;timestamp;P1;P2;P0
82821;PMS5003;72574;46.842;-71.246;2024-02-26T00:00:06;69.95;53.55;37.3
82821;PMS5003;72574;46.842;-71.246;2024-02-26T00:02:29;80.38;62.19;47.76
82821;PMS5003;72574;46.842;-71.246;2024-02-26T00:04:56;60.62;48.76;32.1
82821;PMS5003;72574;46.842;-71.246;2024-02-26T00:07:21;56.85;49.3;34.75
82821;PMS5003;72574;46.842;-71.246;2024-02-26T00:09:47;72.6;53.25;36.55
82821;PMS5003;72574;46.842;-71.246;2024-02-26T00:12:11;67.38;54.14;37.29
82821;PMS5003;72574;46.842;-71.246;2024-02-26T00:14:39;87.53;68.58;54.42
82821;PMS5003;72574;46.842;-71.246;2024-02-26T00:17:07;88.7;68.1;53.1
82821;PMS5003;72574;46.842;-71.246;2024-02-26T00:19:30;88.71;66.71;49.29
82821;PMS5003;72574;46.842;-71.246;2024-02-26T00:21:56;86.15;64;47.1
82821;PMS5003;72574;46.842;-71.246;2024-02-26T00:24:22;82.95;61.8;42.8
82821;PMS5003;72574;46.842;-71.246;2024-02-26T00:26:46;89.1;68.65;50.75
82821;PMS5003;72574;46.842;-71.246;2024-02-26T00:29:14;75.14;54.05;35.43
82821;PMS5003;72574;46.842;-71.246;2024-02-26T00:31:41;67.41;50.09;34.73
82821;PMS5003;72574;46.842;-71.246;2024-02-26T00:34:06;84.05;60.86;42.43
82821;PMS5003;72574;46.842;-71.246;2024-02-26T00:36:30;52.62;44.67;27.43
82821;PMS5003;72574;46.842;-71.246;2024-02-26T00:38:56;74.24;57.95;37.14
82821;PMS5003;72574;46.842;-71.246;2024-02-26T00:41:21;84.85;57.6;35.55
82821;PMS5003;72574;46.842;-71.246;2024-02-26T00:43:46;78.25;55.6;34.45
82821;PMS5003;72574;46.842;-71.246;2024-02-26T00:46:15;83.27;56.32;33.09
82821;PMS5003;72574;46.842;-71.246;2024-02-26T00:48:38;73.74;54.74;34.68
82821;PMS5003;72574;46.842;-71.246;2024-02-26T00:51:04;72.85;54.65;33.2
82821;PMS5003;72574;46.842;-71.246;2024-02-26T00:53:40;69.15;51.25;32.25
82821;PMS5003;72574;46.842;-71.246;2024-02-26T00:56:03;76.45;51.23;32.59
82821;PMS5003;72574;46.842;-71.246;2024-02-26T00:58:47;64.95;50.15;32.3
82821;PMS5003;72574;46.842;-71.246;2024-02-26T01:01:15;69.67;50.9;32
82821;PMS5003;72574;46.842;-71.246;2024-02-26T01:03:47;56.5;45.4;25.1
82821;PMS5003;72574;46.842;-71.246;2024-02-26T01:06:11;71;50.1;31.9
82821;PMS5003;72574;46.842;-71.246;2024-02-26T01:08:35;61.16;47.11;31.32
82821;PMS5003;72574;46.842;-71.246;2024-02-26T01:11:02;66.39;47.83;29.89
82821;PMS5003;72574;46.842;-71.246;2024-02-26T01:13:39;51.95;43;27
82821;PMS5003;72574;46.842;-71.246;2024-02-26T01:16:01;69.85;50.1;30.25
82821;PMS5003;72574;46.842;-71.246;2024-02-26T01:18:27;66.5;48.45;28.35
82821;PMS5003;72574;46.842;-71.246;2024-02-26T01:20:53;68.9;47.65;29.45
82821;PMS5003;72574;46.842;-71.246;2024-02-26T01:23:18;62.1;45.75;26.75
82821;PMS5003;72574;46.842;-71.246;2024-02-26T01:25:45;44.24;36.67;22
82821;PMS5003;72574;46.842;-71.246;2024-02-26T01:28:12;48.74;41.68;25.37
82821;PMS5003;72574;46.842;-71.246;2024-02-26T01:30:35;64.1;45.25;26.95
82821;PMS5003;72574;46.842;-71.246;2024-02-26T01:33:00;65.3;44.9;27.6
82821;PMS5003;72574;46.842;-71.246;2024-02-26T01:35:28;61.15;44.6;26.65
82821;PMS5003;72574;46.842;-71.246;2024-02-26T01:37:57;53.67;38.9;25.1
82821;PMS5003;72574;46.842;-71.246;2024-02-26T01:40:23;67.25;53.25;32.8
82821;PMS5003;72574;46.842;-71.246;2024-02-26T01:42:49;74.84;54.32;34.05
82821;PMS5003;72574;46.842;-71.246;2024-02-26T01:45:14;62.6;46.85;30.7
82821;PMS5003;72574;46.842;-71.246;2024-02-26T01:47:39;68.17;50.17;32.72
82821;PMS5003;72574;46.842;-71.246;2024-02-26T01:50:06;68.38;53.1;33.71
82821;PMS5003;72574;46.842;-71.246;2024-02-26T01:52:29;69.48;54.67;37.24
82821;PMS5003;72574;46.842;-71.246;2024-02-26T01:54:59;81.24;63.76;47.29
82821;PMS5003;72574;46.842;-71.246;2024-02-26T01:57:27;74.89;55.26;36.05
82821;PMS5003;72574;46.842;-71.246;2024-02-26T01:59:53;78.47;56;35.32
82821;PMS5003;72574;46.842;-71.246;2024-02-26T02:02:18;73.56;53.72;34.67
82821;PMS5003;72574;46.842;-71.246;2024-02-26T02:04:44;85.9;61.76;37.38
82821;PMS5003;72574;46.842;-71.246;2024-02-26T02:07:11;78.95;61.79;37.47
82821;PMS5003;72574;46.842;-71.246;2024-02-26T02:09:35;83.68;60.26;37.42
82821;PMS5003;72574;46.842;-71.246;2024-02-26T02:12:01;81.8;60.75;39.55
82821;PMS5003;72574;46.842;-71.246;2024-02-26T02:14:25;115.43;88.43;47.57
82821;PMS5003;72574;46.842;-71.246;2024-02-26T02:16:53;112.44;82.61;46.67
82821;PMS5003;72574;46.842;-71.246;2024-02-26T02:19:19;102.06;72.72;43.67
82821;PMS5003;72574;46.842;-71.246;2024-02-26T02:21:44;98.45;71.35;42.35
82821;PMS5003;72574;46.842;-71.246;2024-02-26T02:24:10;92.19;67.71;39.52
82821;PMS5003;72574;46.842;-71.246;2024-02-26T02:26:33;95.06;67.67;39.83
82821;PMS5003;72574;46.842;-71.246;2024-02-26T02:29:02;88.75;63.95;38.35
82821;PMS5003;72574;46.842;-71.246;2024-02-26T02:31:25;84.86;63.76;41.14
82821;PMS5003;72574;46.842;-71.246;2024-02-26T02:33:52;99.68;71.84;42.16
82821;PMS5003;72574;46.842;-71.246;2024-02-26T02:36:16;89.81;65.9;40.05
82821;PMS5003;72574;46.842;-71.246;2024-02-26T02:38:48;95.15;67.6;40.7
82821;PMS5003;72574;46.842;-71.246;2024-02-26T02:41:09;96.35;68.25;40.65
82821;PMS5003;72574;46.842;-71.246;2024-02-26T02:43:33;79.84;59.84;37.47
82821;PMS5003;72574;46.842;-71.246;2024-02-26T02:45:59;84.24;60.24;36.24
82821;PMS5003;72574;46.842;-71.246;2024-02-26T02:48:25;79.24;58.48;35.48
82821;PMS5003;72574;46.842;-71.246;2024-02-26T02:50:51;62.21;50;29.84
82821;PMS5003;72574;46.842;-71.246;2024-02-26T02:53:15;68.35;51.85;31.6
82821;PMS5003;72574;46.842;-71.246;2024-02-26T02:55:42;73.55;52.6;32.2
82821;PMS5003;72574;46.842;-71.246;2024-02-26T02:58:06;62.35;48.1;29.6
82821;PMS5003;72574;46.842;-71.246;2024-02-26T03:00:32;63.24;50.14;30.9
82821;PMS5003;72574;46.842;-71.246;2024-02-26T03:03:11;63.86;50.71;31.05
82821;PMS5003;72574;46.842;-71.246;2024-02-26T03:05:37;71.15;51.95;31.25
82821;PMS5003;72574;46.842;-71.246;2024-02-26T03:08:03;67;52.67;31.76
82821;PMS5003;72574;46.842;-71.246;2024-02-26T03:10:27;68.5;51.22;32.22
82821;PMS5003;72574;46.842;-71.246;2024-02-26T03:12:53;73.89;53.06;33.44
82821;PMS5003;72574;46.842;-71.246;2024-02-26T03:15:19;65.74;48.11;27.89
82821;PMS5003;72574;46.842;-71.246;2024-02-26T03:17:45;56.48;46.29;28.33
82821;PMS5003;72574;46.842;-71.246;2024-02-26T03:20:10;65.7;49;29.9
82821;PMS5003;72574;46.842;-71.246;2024-02-26T03:22:38;73.48;51.52;30.57
82821;PMS5003;72574;46.842;-71.246;2024-02-26T03:25:00;72.7;52.25;31.9
82821;PMS5003;72574;46.842;-71.246;2024-02-26T03:27:25;62.52;50.38;31.38
82821;PMS5003;72574;46.842;-71.246;2024-02-26T03:29:51;72.38;52.48;31.67
82821;PMS5003;72574;46.842;-71.246;2024-02-26T03:32:18;70.32;52.74;31
82821;PMS5003;72574;46.842;-71.246;2024-02-26T03:34:41;57.9;45.62;29.24
82821;PMS5003;72574;46.842;-71.246;2024-02-26T03:37:11;70.9;51.52;31.29
82821;PMS5003;72574;46.842;-71.246;2024-02-26T03:39:36;64.52;50.05;28.48
82821;PMS5003;72574;46.842;-71.246;2024-02-26T03:42:02;71.55;52.55;30.75
82821;PMS5003;72574;46.842;-71.246;2024-02-26T03:44:28;68.63;52.47;31.68
82821;PMS5003;72574;46.842;-71.246;2024-02-26T03:46:54;54.81;44.62;27.71
82821;PMS5003;72574;46.842;-71.246;2024-02-26T03:49:18;76.95;54.58;32.58
82821;PMS5003;72574;46.842;-71.246;2024-02-26T03:51:44;59.05;48.25;28.2
82821;PMS5003;72574;46.842;-71.246;2024-02-26T03:54:10;63.48;48.62;26.48
82821;PMS5003;72574;46.842;-71.246;2024-02-26T03:56:34;61.9;48.81;30.43
82821;PMS5003;72574;46.842;-71.246;2024-02-26T03:59:00;75.5;57.7;35.25
82821;PMS5003;72574;46.842;-71.246;2024-02-26T04:01:26;74.84;56;34.21
82821;PMS5003;72574;46.842;-71.246;2024-02-26T04:03:52;81.68;55.42;34.74
82821;PMS5003;72574;46.842;-71.246;2024-02-26T04:06:16;75.38;51.9;31.52
82821;PMS5003;72574;46.842;-71.246;2024-02-26T04:08:43;72.53;55.74;34.95
82821;PMS5003;72574;46.842;-71.246;2024-02-26T04:11:09;79.7;55.1;33.5
82821;PMS5003;72574;46.842;-71.246;2024-02-26T04:13:33;68.19;54.43;33.24
82821;PMS5003;72574;46.842;-71.246;2024-02-26T04:15:59;76.8;57.35;32.8
82821;PMS5003;72574;46.842;-71.246;2024-02-26T04:18:24;64.95;52.81;31.52
82821;PMS5003;72574;46.842;-71.246;2024-02-26T04:20:50;75.85;54.75;32.35
82821;PMS5003;72574;46.842;-71.246;2024-02-26T04:23:15;71.43;52.9;32.67
82821;PMS5003;72574;46.842;-71.246;2024-02-26T04:25:41;78.38;55.86;33.38
82821;PMS5003;72574;46.842;-71.246;2024-02-26T04:28:08;65.58;50.21;31.16
82821;PMS5003;72574;46.842;-71.246;2024-02-26T04:30:32;63.74;49.53;31
82821;PMS5003;72574;46.842;-71.246;2024-02-26T04:32:59;68.26;54.26;33.05
82821;PMS5003;72574;46.842;-71.246;2024-02-26T04:35:22;72.42;53.79;32.21
82821;PMS5003;72574;46.842;-71.246;2024-02-26T04:37:48;71.55;53.7;33.5
82821;PMS5003;72574;46.842;-71.246;2024-02-26T04:40:13;78.2;56.4;34.95
82821;PMS5003;72574;46.842;-71.246;2024-02-26T04:42:38;72.52;59.05;36.86
82821;PMS5003;72574;46.842;-71.246;2024-02-26T04:45:05;73.9;56.14;33.24
82821;PMS5003;72574;46.842;-71.246;2024-02-26T04:47:30;78.28;56.94;36.78
82821;PMS5003;72574;46.842;-71.246;2024-02-26T04:49:56;74.72;56.67;33.78
82821;PMS5003;72574;46.842;-71.246;2024-02-26T04:52:22;82.32;62.05;38
82821;PMS5003;72574;46.842;-71.246;2024-02-26T04:54:47;81.83;61.17;37.67
82821;PMS5003;72574;46.842;-71.246;2024-02-26T04:57:11;79.75;60.3;37.3
82821;PMS5003;72574;46.842;-71.246;2024-02-26T04:59:37;82.5;60;34.33
82821;PMS5003;72574;46.842;-71.246;2024-02-26T05:02:05;74.81;55;34.67
82821;PMS5003;72574;46.842;-71.246;2024-02-26T05:04:28;73.95;56.33;35.71
82821;PMS5003;72574;46.842;-71.246;2024-02-26T05:06:55;78.84;58.37;36.42
82821;PMS5003;72574;46.842;-71.246;2024-02-26T05:09:20;76.32;53.84;33.84
82821;PMS5003;72574;46.842;-71.246;2024-02-26T05:11:46;71.9;50.81;32.9
82821;PMS5003;72574;46.842;-71.246;2024-02-26T05:14:10;64.38;50.86;32.38
82821;PMS5003;72574;46.842;-71.246;2024-02-26T05:16:37;69.16;50;30.89
82821;PMS5003;72574;46.842;-71.246;2024-02-26T05:19:03;75.57;52.48;32.95
82821;PMS5003;72574;46.842;-71.246;2024-02-26T05:21:27;63.7;49.5;30.6
82821;PMS5003;72574;46.842;-71.246;2024-02-26T05:23:54;71.05;51.42;32.26
82821;PMS5003;72574;46.842;-71.246;2024-02-26T05:26:20;65.52;49.95;31.76
82821;PMS5003;72574;46.842;-71.246;2024-02-26T05:28:44;69.11;53.28;33.06
82821;PMS5003;72574;46.842;-71.246;2024-02-26T05:31:12;75.63;53.89;32.37
82821;PMS5003;72574;46.842;-71.246;2024-02-26T05:33:35;63.85;49.95;32.5
82821;PMS5003;72574;46.842;-71.246;2024-02-26T05:36:02;72.91;53.45;32.45
82821;PMS5003;72574;46.842;-71.246;2024-02-26T05:38:26;70.38;52.81;33.19
82821;PMS5003;72574;46.842;-71.246;2024-02-26T05:40:52;72;52.24;32.14
82821;PMS5003;72574;46.842;-71.246;2024-02-26T05:43:18;55.9;47.55;31.35
82821;PMS5003;72574;46.842;-71.246;2024-02-26T05:45:42;63.68;49.21;32.11
82821;PMS5003;72574;46.842;-71.246;2024-02-26T05:48:08;68.1;49;30.35
82821;PMS5003;72574;46.842;-71.246;2024-02-26T05:50:31;69.62;50.71;30.81
82821;PMS5003;72574;46.842;-71.246;2024-02-26T05:53:00;73.19;51.52;31.14
82821;PMS5003;72574;46.842;-71.246;2024-02-26T05:55:23;69.1;52.35;33.15
82821;PMS5003;72574;46.842;-71.246;2024-02-26T05:57:50;64.35;50.95;30.5
82821;PMS5003;72574;46.842;-71.246;2024-02-26T06:00:15;73.67;51.52;31.24
82821;PMS5003;72574;46.842;-71.246;2024-02-26T06:02:39;77.9;53.55;30.9
82821;PMS5003;72574;46.842;-71.246;2024-02-26T06:05:05;69.55;52.25;32.35
82821;PMS5003;72574;46.842;-71.246;2024-02-26T06:07:34;67.89;51.32;30.84
82821;PMS5003;72574;46.842;-71.246;2024-02-26T06:09:57;70.21;53.63;32.74
82821;PMS5003;72574;46.842;-71.246;2024-02-26T06:12:24;70.9;51.55;32.8
82821;PMS5003;72574;46.842;-71.246;2024-02-26T06:14:48;62.95;49.15;32
82821;PMS5003;72574;46.842;-71.246;2024-02-26T06:17:13;73.78;51.94;32.44
82821;PMS5003;72574;46.842;-71.246;2024-02-26T06:19:39;74.16;53.84;33.11
82821;PMS5003;72574;46.842;-71.246;2024-02-26T06:22:05;65.05;51.75;30.9
82821;PMS5003;72574;46.842;-71.246;2024-02-26T06:24:28;61.05;50.3;31.9
82821;PMS5003;72574;46.842;-71.246;2024-02-26T06:26:56;73.79;55.68;33.84
82821;PMS5003;72574;46.842;-71.246;2024-02-26T06:29:22;68.95;53.35;33.45
82821;PMS5003;72574;46.842;-71.246;2024-02-26T06:31:46;71.58;49.21;32.21
82821;PMS5003;72574;46.842;-71.246;2024-02-26T06:34:12;68.45;51.4;32.55
82821;PMS5003;72574;46.842;-71.246;2024-02-26T06:36:37;69.32;49.21;30.58
82821;PMS5003;72574;46.842;-71.246;2024-02-26T06:39:03;53.3;44.9;29.05
82821;PMS5003;72574;46.842;-71.246;2024-02-26T06:41:27;62;48.37;29.89
82821;PMS5003;72574;46.842;-71.246;2024-02-26T06:43:56;64.15;45.4;29.45
82821;PMS5003;72574;46.842;-71.246;2024-02-26T06:46:19;53.81;45.95;29.38
82821;PMS5003;72574;46.842;-71.246;2024-02-26T06:48:44;59.4;46.8;29.55
82821;PMS5003;72574;46.842;-71.246;2024-02-26T06:51:11;60.16;45.42;28.58
82821;PMS5003;72574;46.842;-71.246;2024-02-26T06:53:36;55.35;44.05;26.05
82821;PMS5003;72574;46.842;-71.246;2024-02-26T06:56:00;60.16;46;29.21
82821;PMS5003;72574;46.842;-71.246;2024-02-26T06:58:26;63.2;50.3;32.15
82821;PMS5003;72574;46.842;-71.246;2024-02-26T07:00:54;71;55.43;32.86
82821;PMS5003;72574;46.842;-71.246;2024-02-26T07:03:17;58.38;45.95;30.43
82821;PMS5003;72574;46.842;-71.246;2024-02-26T07:05:44;68.65;55.1;31.9
82821;PMS5003;72574;46.842;-71.246;2024-02-26T07:08:09;66.76;50.81;29.52
82821;PMS5003;72574;46.842;-71.246;2024-02-26T07:10:35;64.4;50.6;31.45
82821;PMS5003;72574;46.842;-71.246;2024-02-26T07:12:59;58.47;45.26;28.58
82821;PMS5003;72574;46.842;-71.246;2024-02-26T07:15:26;62.26;47.32;30.26
82821;PMS5003;72574;46.842;-71.246;2024-02-26T07:17:52;56.15;46.7;29.9
82821;PMS5003;72574;46.842;-71.246;2024-02-26T07:20:15;59.11;47.5;30.72
82821;PMS5003;72574;46.842;-71.246;2024-02-26T07:22:40;69.58;49.26;30.26
82821;PMS5003;72574;46.842;-71.246;2024-02-26T07:25:07;59.25;44.6;29.3
82821;PMS5003;72574;46.842;-71.246;2024-02-26T07:27:31;54.24;44.48;27.71
82821;PMS5003;72574;46.842;-71.246;2024-02-26T07:29:57;61.44;46.33;29.28
82821;PMS5003;72574;46.842;-71.246;2024-02-26T07:32:23;53.2;44.05;26.8
82821;PMS5003;72574;46.842;-71.246;2024-02-26T07:34:48;58.68;42.84;26.84
82821;PMS5003;72574;46.842;-71.246;2024-02-26T07:37:16;54;39.7;22.25
82821;PMS5003;72574;46.842;-71.246;2024-02-26T07:39:39;45.89;37.89;22.56
82821;PMS5003;72574;46.842;-71.246;2024-02-26T07:42:05;39.1;34.8;20.85
82821;PMS5003;72574;46.842;-71.246;2024-02-26T07:44:32;27.05;24.45;15.1
82821;PMS5003;72574;46.842;-71.246;2024-02-26T07:46:56;27.89;25.26;16.11
82821;PMS5003;72574;46.842;-71.246;2024-02-26T07:49:23;37.9;28.8;18.7
82821;PMS5003;72574;46.842;-71.246;2024-02-26T07:51:47;46.27;34.73;20.59
82821;PMS5003;72574;46.842;-71.246;2024-02-26T07:54:13;36.75;32.9;20.25
82821;PMS5003;72574;46.842;-71.246;2024-02-26T07:56:38;33.45;29.75;19.25
82821;PMS5003;72574;46.842;-71.246;2024-02-26T07:59:04;36.81;28.62;17.19
82821;PMS5003;72574;46.842;-71.246;2024-02-26T08:01:28;32.3;26.5;17.05
82821;PMS5003;72574;46.842;-71.246;2024-02-26T08:03:55;24.8;23.65;17.85
82821;PMS5003;72574;46.842;-71.246;2024-02-26T08:06:20;23.6;22.8;15.55
82821;PMS5003;72574;46.842;-71.246;2024-02-26T08:08:46;27.05;24.29;14.38
82821;PMS5003;72574;46.842;-71.246;2024-02-26T08:11:14;25.42;22.58;13.89
82821;PMS5003;72574;46.842;-71.246;2024-02-26T08:13:37;28.65;26.6;14.85
82821;PMS5003;72574;46.842;-71.246;2024-02-26T08:16:03;26.05;22.25;12.35
82821;PMS5003;72574;46.842;-71.246;2024-02-26T08:18:29;29.44;22.94;14.78
82821;PMS5003;72574;46.842;-71.246;2024-02-26T08:20:54;25.62;23.71;16.38
82821;PMS5003;72574;46.842;-71.246;2024-02-26T08:23:21;28.45;25.75;14.5
82821;PMS5003;72574;46.842;-71.246;2024-02-26T08:25:48;35.95;31.47;17.26
82821;PMS5003;72574;46.842;-71.246;2024-02-26T08:28:11;37.1;31.85;19.85
82821;PMS5003;72574;46.842;-71.246;2024-02-26T08:30:38;33.9;30.65;18.95
82821;PMS5003;72574;46.842;-71.246;2024-02-26T08:33:04;37.05;32.21;19.68
82821;PMS5003;72574;46.842;-71.246;2024-02-26T08:35:27;46;36;20.8
82821;PMS5003;72574;46.842;-71.246;2024-02-26T08:37:53;36.4;35.05;20.45
82821;PMS5003;72574;46.842;-71.246;2024-02-26T08:40:20;34.75;31.35;19.3
82821;PMS5003;72574;46.842;-71.246;2024-02-26T08:42:45;36.1;32.33;21.05
82821;PMS5003;72574;46.842;-71.246;2024-02-26T08:45:13;42.22;33.44;20.61
82821;PMS5003;72574;46.842;-71.246;2024-02-26T08:47:39;43.65;35.15;19.7
82821;PMS5003;72574;46.842;-71.246;2024-02-26T08:50:05;49.2;35.55;22.25
82821;PMS5003;72574;46.842;-71.246;2024-02-26T08:52:31;39.7;34.9;23.05
82821;PMS5003;72574;46.842;-71.246;2024-02-26T08:54:55;35.3;32.1;22.6
82821;PMS5003;72574;46.842;-71.246;2024-02-26T08:57:19;33;30.15;19.5
82821;PMS5003;72574;46.842;-71.246;2024-02-26T08:59:46;41.33;33.52;20.43
82821;PMS5003;72574;46.842;-71.246;2024-02-26T09:22:59;33.85;31.15;19.2
82821;PMS5003;72574;46.842;-71.246;2024-02-26T09:23:14;33.81;30.76;17.86
82821;PMS5003;72574;46.842;-71.246;2024-02-26T09:23:31;49.52;35.76;21.19
82821;PMS5003;72574;46.842;-71.246;2024-02-26T09:23:46;55.62;40.19;21.67
82821;PMS5003;72574;46.842;-71.246;2024-02-26T09:23:59;44.9;38.05;21.65
82821;PMS5003;72574;46.842;-71.246;2024-02-26T09:24:12;38.1;31.86;21.05
82821;PMS5003;72574;46.842;-71.246;2024-02-26T09:24:24;39.1;34.43;20.76
82821;PMS5003;72574;46.842;-71.246;2024-02-26T09:24:43;50.29;37.05;23.43
82821;PMS5003;72574;46.842;-71.246;2024-02-26T09:27:02;37.81;30.57;17.9
82821;PMS5003;72574;46.842;-71.246;2024-02-26T09:29:25;48.33;34.76;20.71
82821;PMS5003;72574;46.842;-71.246;2024-02-26T09:31:53;40.52;32.57;20.76
82821;PMS5003;72574;46.842;-71.246;2024-02-26T09:34:19;35.3;32;22.1
82821;PMS5003;72574;46.842;-71.246;2024-02-26T09:36:42;37.79;33.26;21.26
82821;PMS5003;72574;46.842;-71.246;2024-02-26T09:39:09;37.65;34.85;19.95
82821;PMS5003;72574;46.842;-71.246;2024-02-26T09:41:34;39.35;32.2;22.5
82821;PMS5003;72574;46.842;-71.246;2024-02-26T09:44:01;30.8;29.4;19.2
82821;PMS5003;72574;46.842;-71.246;2024-02-26T09:46:26;33.55;30.75;17.75
82821;PMS5003;72574;46.842;-71.246;2024-02-26T09:48:52;32.81;30.24;19.33
82821;PMS5003;72574;46.842;-71.246;2024-02-26T09:51:18;33.15;30.4;19.9
82821;PMS5003;72574;46.842;-71.246;2024-02-26T09:53:42;38.95;31.8;19.35
82821;PMS5003;72574;46.842;-71.246;2024-02-26T09:56:07;49.15;36.25;21.75
82821;PMS5003;72574;46.842;-71.246;2024-02-26T09:58:33;37.35;31.95;18.45
82821;PMS5003;72574;46.842;-71.246;2024-02-26T10:00:57;44.79;37.32;21.68
82821;PMS5003;72574;46.842;-71.246;2024-02-26T10:03:31;35.9;33.38;23.1
82821;PMS5003;72574;46.842;-71.246;2024-02-26T10:05:56;39.68;32.05;19.63
82821;PMS5003;72574;46.842;-71.246;2024-02-26T10:08:20;28;26;18.6
82821;PMS5003;72574;46.842;-71.246;2024-02-26T10:10:46;39;31.7;18.45
82821;PMS5003;72574;46.842;-71.246;2024-02-26T10:13:12;27.65;23.8;19.1
82821;PMS5003;72574;46.842;-71.246;2024-02-26T10:15:39;31.62;28.76;18.14
82821;PMS5003;72574;46.842;-71.246;2024-02-26T10:18:03;31.1;28;17.05
82821;PMS5003;72574;46.842;-71.246;2024-02-26T10:20:28;32.14;28.57;16.52
82821;PMS5003;72574;46.842;-71.246;2024-02-26T10:22:55;28.75;26.5;16
82821;PMS5003;72574;46.842;-71.246;2024-02-26T10:25:19;35.25;31;18.9
82821;PMS5003;72574;46.842;-71.246;2024-02-26T10:27:46;30.1;27.75;16.4
82821;PMS5003;72574;46.842;-71.246;2024-02-26T10:30:20;32.05;29.25;18.6
82821;PMS5003;72574;46.842;-71.246;2024-02-26T10:32:35;39.5;32.75;20
82821;PMS5003;72574;46.842;-71.246;2024-02-26T10:35:01;27.35;26.3;15.2
82821;PMS5003;72574;46.842;-71.246;2024-02-26T10:37:29;28.71;24.14;17.81
82821;PMS5003;72574;46.842;-71.246;2024-02-26T10:39:53;27.5;25.2;17.4
82821;PMS5003;72574;46.842;-71.246;2024-02-26T10:42:18;33.39;29.5;16.72
82821;PMS5003;72574;46.842;-71.246;2024-02-26T10:44:43;32.25;28.35;15.35
82821;PMS5003;72574;46.842;-71.246;2024-02-26T10:47:08;30.95;27.3;16.75
82821;PMS5003;72574;46.842;-71.246;2024-02-26T10:49:36;33.7;29.65;18.15
82821;PMS5003;72574;46.842;-71.246;2024-02-26T10:52:00;29.45;26.15;15.55
82821;PMS5003;72574;46.842;-71.246;2024-02-26T10:54:27;23.67;23.14;15.29
82821;PMS5003;72574;46.842;-71.246;2024-02-26T10:56:50;28;26.35;17.75
82821;PMS5003;72574;46.842;-71.246;2024-02-26T10:59:18;28.2;22.35;13.65
82821;PMS5003;72574;46.842;-71.246;2024-02-26T11:01:42;40.9;28.9;18.35
82821;PMS5003;72574;46.842;-71.246;2024-02-26T11:04:08;46.85;30.05;18.95
82821;PMS5003;72574;46.842;-71.246;2024-02-26T11:06:34;41.95;30.45;18.05
82821;PMS5003;72574;46.842;-71.246;2024-02-26T11:08:58;43.05;33.85;18.25
82821;PMS5003;72574;46.842;-71.246;2024-02-26T11:11:26;30.1;29.19;18.14
82821;PMS5003;72574;46.842;-71.246;2024-02-26T11:13:49;29.75;26.45;17.05
82821;PMS5003;72574;46.842;-71.246;2024-02-26T11:16:15;35.85;31.1;18.8
82821;PMS5003;72574;46.842;-71.246;2024-02-26T11:18:39;43.15;39.35;22.7
82821;PMS5003;72574;46.842;-71.246;2024-02-26T11:21:05;36.75;32.8;21.9
82821;PMS5003;72574;46.842;-71.246;2024-02-26T11:23:30;45.8;36.95;19.5
82821;PMS5003;72574;46.842;-71.246;2024-02-26T11:25:56;45.37;34.37;19.63
82821;PMS5003;72574;46.842;-71.246;2024-02-26T11:28:22;53.05;40.24;21.14
82821;PMS5003;72574;46.842;-71.246;2024-02-26T11:30:48;47.84;37.32;23.47
82821;PMS5003;72574;46.842;-71.246;2024-02-26T11:33:12;44.42;32.74;20.74
82821;PMS5003;72574;46.842;-71.246;2024-02-26T11:35:39;37.32;34.11;20.84
82821;PMS5003;72574;46.842;-71.246;2024-02-26T11:38:04;38.55;33.8;21.8
82821;PMS5003;72574;46.842;-71.246;2024-02-26T11:40:31;44.65;32.25;19.75
82821;PMS5003;72574;46.842;-71.246;2024-02-26T11:42:55;44.19;33.71;20.05
82821;PMS5003;72574;46.842;-71.246;2024-02-26T11:45:54;30.29;28.33;18.76
82821;PMS5003;72574;46.842;-71.246;2024-02-26T11:47:55;43.95;33.25;20.25
82821;PMS5003;72574;46.842;-71.246;2024-02-26T11:50:46;49.3;34.8;20.75
82821;PMS5003;72574;46.842;-71.246;2024-02-26T11:52:39;44.29;32.19;19.24
82821;PMS5003;72574;46.842;-71.246;2024-02-26T11:55:03;39.63;31.53;18.42
82821;PMS5003;72574;46.842;-71.246;2024-02-26T11:57:30;41.2;29.65;19.2
82821;PMS5003;72574;46.842;-71.246;2024-02-26T11:59:53;37.3;33.4;20.45
82821;PMS5003;72574;46.842;-71.246;2024-02-26T12:02:51;41.57;35.43;23.86
82821;PMS5003;72574;46.842;-71.246;2024-02-26T12:04:47;48.7;37.05;23.4
82821;PMS5003;72574;46.842;-71.246;2024-02-26T12:07:11;49.95;35.65;21.8
82821;PMS5003;72574;46.842;-71.246;2024-02-26T12:09:38;47.6;38.25;23.05
82821;PMS5003;72574;46.842;-71.246;2024-02-26T12:12:02;37.68;34.32;24.11
82821;PMS5003;72574;46.842;-71.246;2024-02-26T12:14:25;37.65;33.05;20.05
82821;PMS5003;72574;46.842;-71.246;2024-02-26T12:16:51;37.9;34.7;23.15
82821;PMS5003;72574;46.842;-71.246;2024-02-26T12:19:18;50.86;39.14;25.48
82821;PMS5003;72574;46.842;-71.246;2024-02-26T12:21:44;53.55;39.65;23.85
82821;PMS5003;72574;46.842;-71.246;2024-02-26T12:24:10;48.11;37.42;24.37
82821;PMS5003;72574;46.842;-71.246;2024-02-26T12:26:35;48.35;40;21.7
82821;PMS5003;72574;46.842;-71.246;2024-02-26T12:29:01;40.39;32.78;23.11
82821;PMS5003;72574;46.842;-71.246;2024-02-26T12:31:24;42.85;35.45;22.4
82821;PMS5003;72574;46.842;-71.246;2024-02-26T12:33:50;42.95;37.1;23.4
82821;PMS5003;72574;46.842;-71.246;2024-02-26T12:36:16;41.74;34.63;23.63
82821;PMS5003;72574;46.842;-71.246;2024-02-26T12:38:43;36.1;31.35;19.9
82821;PMS5003;72574;46.842;-71.246;2024-02-26T12:41:09;39.65;35.4;20.75
82821;PMS5003;72574;46.842;-71.246;2024-02-26T12:43:33;39.48;33.76;20.57
82821;PMS5003;72574;46.842;-71.246;2024-02-26T12:45:57;40.05;31.45;19.3
82821;PMS5003;72574;46.842;-71.246;2024-02-26T12:48:23;36.81;30.05;18.57
82821;PMS5003;72574;46.842;-71.246;2024-02-26T12:50:49;40.6;28.65;19
82821;PMS5003;72574;46.842;-71.246;2024-02-26T12:53:17;29.64;27.5;17.5
82821;PMS5003;72574;46.842;-71.246;2024-02-26T12:55:40;31.2;27.3;17.8
82821;PMS5003;72574;46.842;-71.246;2024-02-26T12:58:07;28.24;27;18.76
82821;PMS5003;72574;46.842;-71.246;2024-02-26T13:00:31;31.48;26.05;17.19
82821;PMS5003;72574;46.842;-71.246;2024-02-26T13:02:59;31.14;27.81;17.24
82821;PMS5003;72574;46.842;-71.246;2024-02-26T13:05:22;27.55;27;17.25
82821;PMS5003;72574;46.842;-71.246;2024-02-26T13:07:49;41.75;33.15;20.95
82821;PMS5003;72574;46.842;-71.246;2024-02-26T13:10:15;36.95;32.05;19.35
82821;PMS5003;72574;46.842;-71.246;2024-02-26T13:12:42;36.9;33.48;20.95
82821;PMS5003;72574;46.842;-71.246;2024-02-26T13:15:04;47.7;34.6;19.4
82821;PMS5003;72574;46.842;-71.246;2024-02-26T13:17:32;36.95;30.95;19.85
82821;PMS5003;72574;46.842;-71.246;2024-02-26T13:19:55;30.38;28.76;17.52
82821;PMS5003;72574;46.842;-71.246;2024-02-26T13:22:23;45.25;32;20.05
82821;PMS5003;72574;46.842;-71.246;2024-02-26T13:24:46;32.24;29.14;19.14
82821;PMS5003;72574;46.842;-71.246;2024-02-26T13:27:12;33.5;32.41;21
82821;PMS5003;72574;46.842;-71.246;2024-02-26T13:29:40;32.05;28.76;18.29